sensor_id;sensor_type;location;lat;lon;timestamp;temperature;humidity
17495;DHT22;8864;51.970;4.614;2022-09-04T00:02:32;23.90;62.80
17495;DHT22;8864;51.970;4.614;2022-09-04T00:05:10;23.90;63.00
17495;DHT22;8864;51.970;4.614;2022-09-04T00:07:50;23.90;63.00
17495;DHT22;8864;51.970;4.614;2022-09-04T00:10:29;23.90;63.00
17495;DHT22;8864;51.970;4.614;2022-09-04T00:13:04;23.90;63.30
17495;DHT22;8864;51.970;4.614;2022-09-04T00:15:37;23.90;63.60
17495;DHT22;8864;51.970;4.614;2022-09-04T00:18:08;23.80;63.60
17495;DHT22;8864;51.970;4.614;2022-09-04T00:20:39;23.90;63.80
17495;DHT22;8864;51.970;4.614;2022-09-04T00:23:13;23.90;63.70
17495;DHT22;8864;51.970;4.614;2022-09-04T00:25:49;23.90;63.70
17495;DHT22;8864;51.970;4.614;2022-09-04T00:28:31;23.90;63.60
17495;DHT22;8864;51.970;4.614;2022-09-04T00:31:04;23.90;63.70
17495;DHT22;8864;51.970;4.614;2022-09-04T00:33:37;23.90;63.60
17495;DHT22;8864;51.970;4.614;2022-09-04T00:36:07;23.90;63.60
17495;DHT22;8864;51.970;4.614;2022-09-04T00:38:41;23.90;63.70
17495;DHT22;8864;51.970;4.614;2022-09-04T00:41:17;23.90;63.70
17495;DHT22;8864;51.970;4.614;2022-09-04T00:47:21;24.00;63.60
17495;DHT22;8864;51.970;4.614;2022-09-04T00:50:06;24.00;63.70
17495;DHT22;8864;51.970;4.614;2022-09-04T00:52:56;24.00;63.80
17495;DHT22;8864;51.970;4.614;2022-09-04T00:55:43;23.90;63.80
17495;DHT22;8864;51.970;4.614;2022-09-04T00:58:22;24.00;63.70
17495;DHT22;8864;51.970;4.614;2022-09-04T01:00:53;23.90;63.70
17495;DHT22;8864;51.970;4.614;2022-09-04T01:06:26;23.90;63.90
17495;DHT22;8864;51.970;4.614;2022-09-04T01:09:19;24.00;63.90
17495;DHT22;8864;51.970;4.614;2022-09-04T01:11:56;24.00;63.90
17495;DHT22;8864;51.970;4.614;2022-09-04T01:14:32;24.00;64.00
17495;DHT22;8864;51.970;4.614;2022-09-04T01:17:11;24.00;65.00
17495;DHT22;8864;51.970;4.614;2022-09-04T01:19:49;24.00;63.90
17495;DHT22;8864;51.970;4.614;2022-09-04T01:22:27;24.00;64.00
17495;DHT22;8864;51.970;4.614;2022-09-04T01:25:04;24.00;64.30
17495;DHT22;8864;51.970;4.614;2022-09-04T01:27:44;24.00;64.50
17495;DHT22;8864;51.970;4.614;2022-09-04T01:30:16;23.90;64.70
17495;DHT22;8864;51.970;4.614;2022-09-04T01:32:54;24.00;64.90
17495;DHT22;8864;51.970;4.614;2022-09-04T01:35:30;23.90;65.10
17495;DHT22;8864;51.970;4.614;2022-09-04T01:38:05;23.80;65.20
17495;DHT22;8864;51.970;4.614;2022-09-04T01:40:43;23.90;65.10
17495;DHT22;8864;51.970;4.614;2022-09-04T01:43:14;23.90;65.30
17495;DHT22;8864;51.970;4.614;2022-09-04T01:48:42;23.90;65.70
17495;DHT22;8864;51.970;4.614;2022-09-04T01:51:17;23.90;65.80
17495;DHT22;8864;51.970;4.614;2022-09-04T01:53:52;23.90;65.80
17495;DHT22;8864;51.970;4.614;2022-09-04T01:56:26;23.90;65.90
17495;DHT22;8864;51.970;4.614;2022-09-04T01:58:59;23.90;66.00
17495;DHT22;8864;51.970;4.614;2022-09-04T02:01:31;23.90;66.10
17495;DHT22;8864;51.970;4.614;2022-09-04T02:04:06;23.90;66.30
17495;DHT22;8864;51.970;4.614;2022-09-04T02:06:42;23.90;66.30
17495;DHT22;8864;51.970;4.614;2022-09-04T02:09:28;23.90;66.30
17495;DHT22;8864;51.970;4.614;2022-09-04T02:12:08;23.90;66.30
17495;DHT22;8864;51.970;4.614;2022-09-04T02:14:42;23.80;66.30
17495;DHT22;8864;51.970;4.614;2022-09-04T02:17:16;23.90;66.40
17495;DHT22;8864;51.970;4.614;2022-09-04T02:20:02;23.90;66.40
17495;DHT22;8864;51.970;4.614;2022-09-04T02:22:38;23.80;66.40
17495;DHT22;8864;51.970;4.614;2022-09-04T02:25:18;23.80;66.40
17495;DHT22;8864;51.970;4.614;2022-09-04T02:27:53;23.80;66.50
17495;DHT22;8864;51.970;4.614;2022-09-04T02:30:27;23.80;66.60
17495;DHT22;8864;51.970;4.614;2022-09-04T02:33:00;23.80;66.60
17495;DHT22;8864;51.970;4.614;2022-09-04T02:35:36;23.80;66.70
17495;DHT22;8864;51.970;4.614;2022-09-04T02:38:12;23.80;66.70
17495;DHT22;8864;51.970;4.614;2022-09-04T02:40:49;23.80;66.70
17495;DHT22;8864;51.970;4.614;2022-09-04T02:43:35;23.80;66.80
17495;DHT22;8864;51.970;4.614;2022-09-04T02:46:12;23.80;66.90
17495;DHT22;8864;51.970;4.614;2022-09-04T02:48:51;23.80;66.80
17495;DHT22;8864;51.970;4.614;2022-09-04T02:51:31;23.80;66.90
17495;DHT22;8864;51.970;4.614;2022-09-04T02:54:10;23.80;66.80
17495;DHT22;8864;51.970;4.614;2022-09-04T02:56:47;23.80;66.80
17495;DHT22;8864;51.970;4.614;2022-09-04T02:59:30;23.80;66.80
17495;DHT22;8864;51.970;4.614;2022-09-04T03:02:04;23.70;66.80
17495;DHT22;8864;51.970;4.614;2022-09-04T03:04:39;23.80;66.80
17495;DHT22;8864;51.970;4.614;2022-09-04T03:07:23;23.80;66.80
17495;DHT22;8864;51.970;4.614;2022-09-04T03:09:53;23.70;66.80
17495;DHT22;8864;51.970;4.614;2022-09-04T03:12:28;23.80;66.80
17495;DHT22;8864;51.970;4.614;2022-09-04T03:15:03;23.80;66.70
17495;DHT22;8864;51.970;4.614;2022-09-04T03:17:41;23.70;66.60
17495;DHT22;8864;51.970;4.614;2022-09-04T03:20:15;23.80;66.80
17495;DHT22;8864;51.970;4.614;2022-09-04T03:22:48;23.80;66.80
17495;DHT22;8864;51.970;4.614;2022-09-04T03:25:51;23.70;66.90
17495;DHT22;8864;51.970;4.614;2022-09-04T03:28:26;23.80;66.80
17495;DHT22;8864;51.970;4.614;2022-09-04T03:30:58;23.80;67.00
17495;DHT22;8864;51.970;4.614;2022-09-04T03:33:32;23.80;67.00
17495;DHT22;8864;51.970;4.614;2022-09-04T03:36:07;23.80;66.90
17495;DHT22;8864;51.970;4.614;2022-09-04T03:38:44;23.80;66.80
17495;DHT22;8864;51.970;4.614;2022-09-04T03:41:22;23.80;66.90
17495;DHT22;8864;51.970;4.614;2022-09-04T03:44:05;23.80;67.00
17495;DHT22;8864;51.970;4.614;2022-09-04T03:46:41;23.70;67.00
17495;DHT22;8864;51.970;4.614;2022-09-04T03:49:19;23.80;67.10
17495;DHT22;8864;51.970;4.614;2022-09-04T03:51:58;23.80;67.10
17495;DHT22;8864;51.970;4.614;2022-09-04T03:54:38;23.80;67.10
17495;DHT22;8864;51.970;4.614;2022-09-04T03:57:20;23.80;67.20
17495;DHT22;8864;51.970;4.614;2022-09-04T04:00:00;23.80;67.10
17495;DHT22;8864;51.970;4.614;2022-09-04T04:02:35;23.70;67.10
17495;DHT22;8864;51.970;4.614;2022-09-04T04:05:16;23.70;67.10
17495;DHT22;8864;51.970;4.614;2022-09-04T04:08:00;23.70;67.30
17495;DHT22;8864;51.970;4.614;2022-09-04T04:10:33;23.70;67.30
17495;DHT22;8864;51.970;4.614;2022-09-04T04:16:17;23.70;67.30
17495;DHT22;8864;51.970;4.614;2022-09-04T04:18:53;23.70;67.30
17495;DHT22;8864;51.970;4.614;2022-09-04T04:21:37;23.70;67.30
17495;DHT22;8864;51.970;4.614;2022-09-04T04:24:22;23.70;67.40
17495;DHT22;8864;51.970;4.614;2022-09-04T04:27:05;23.70;67.30
17495;DHT22;8864;51.970;4.614;2022-09-04T04:29:45;23.70;67.40
17495;DHT22;8864;51.970;4.614;2022-09-04T04:32:26;23.70;67.40
17495;DHT22;8864;51.970;4.614;2022-09-04T04:35:08;23.70;67.50
17495;DHT22;8864;51.970;4.614;2022-09-04T04:37:53;23.70;67.60
17495;DHT22;8864;51.970;4.614;2022-09-04T04:40:30;23.70;67.70
17495;DHT22;8864;51.970;4.614;2022-09-04T04:43:04;23.70;67.70
17495;DHT22;8864;51.970;4.614;2022-09-04T04:45:40;23.70;67.70
17495;DHT22;8864;51.970;4.614;2022-09-04T04:48:35;23.70;67.70
17495;DHT22;8864;51.970;4.614;2022-09-04T04:54:18;23.70;67.80
17495;DHT22;8864;51.970;4.614;2022-09-04T04:56:52;23.60;67.90
17495;DHT22;8864;51.970;4.614;2022-09-04T04:59:25;23.60;68.00
17495;DHT22;8864;51.970;4.614;2022-09-04T05:01:59;23.60;68.20
17495;DHT22;8864;51.970;4.614;2022-09-04T05:04:38;23.60;68.20
17495;DHT22;8864;51.970;4.614;2022-09-04T05:07:17;23.60;68.30
17495;DHT22;8864;51.970;4.614;2022-09-04T05:09:52;23.60;68.30
17495;DHT22;8864;51.970;4.614;2022-09-04T05:12:27;23.60;68.20
17495;DHT22;8864;51.970;4.614;2022-09-04T05:15:00;23.60;68.30
17495;DHT22;8864;51.970;4.614;2022-09-04T05:17:33;23.60;68.40
17495;DHT22;8864;51.970;4.614;2022-09-04T05:20:20;23.60;68.40
17495;DHT22;8864;51.970;4.614;2022-09-04T05:22:56;23.60;68.50
17495;DHT22;8864;51.970;4.614;2022-09-04T05:25:35;23.60;68.50
17495;DHT22;8864;51.970;4.614;2022-09-04T05:28:09;23.60;68.50
17495;DHT22;8864;51.970;4.614;2022-09-04T05:30:46;23.60;68.50
17495;DHT22;8864;51.970;4.614;2022-09-04T05:33:18;23.60;68.50
17495;DHT22;8864;51.970;4.614;2022-09-04T05:35:52;23.60;68.60
17495;DHT22;8864;51.970;4.614;2022-09-04T05:38:27;23.50;68.60
17495;DHT22;8864;51.970;4.614;2022-09-04T05:41:05;23.60;68.70
17495;DHT22;8864;51.970;4.614;2022-09-04T05:43:49;23.60;68.70
17495;DHT22;8864;51.970;4.614;2022-09-04T05:46:31;23.60;68.80
17495;DHT22;8864;51.970;4.614;2022-09-04T05:49:04;23.60;68.80
17495;DHT22;8864;51.970;4.614;2022-09-04T05:51:53;23.60;69.00
17495;DHT22;8864;51.970;4.614;2022-09-04T05:57:21;23.60;69.00
17495;DHT22;8864;51.970;4.614;2022-09-04T06:00:02;23.60;69.00
17495;DHT22;8864;51.970;4.614;2022-09-04T06:05:35;23.60;69.30
17495;DHT22;8864;51.970;4.614;2022-09-04T06:08:16;23.50;69.40
17495;DHT22;8864;51.970;4.614;2022-09-04T06:10:56;23.60;69.60
17495;DHT22;8864;51.970;4.614;2022-09-04T06:13:45;23.50;69.50
17495;DHT22;8864;51.970;4.614;2022-09-04T06:16:30;23.60;69.60
17495;DHT22;8864;51.970;4.614;2022-09-04T06:19:16;23.60;69.40
17495;DHT22;8864;51.970;4.614;2022-09-04T06:28:05;23.60;69.30
17495;DHT22;8864;51.970;4.614;2022-09-04T06:30:41;23.60;69.40
17495;DHT22;8864;51.970;4.614;2022-09-04T06:33:25;23.60;69.70
17495;DHT22;8864;51.970;4.614;2022-09-04T06:36:16;23.60;69.60
17495;DHT22;8864;51.970;4.614;2022-09-04T06:39:06;23.60;69.60
17495;DHT22;8864;51.970;4.614;2022-09-04T06:41:51;23.70;69.60
17495;DHT22;8864;51.970;4.614;2022-09-04T06:44:30;23.70;69.70
17495;DHT22;8864;51.970;4.614;2022-09-04T06:47:11;23.70;69.90
17495;DHT22;8864;51.970;4.614;2022-09-04T06:49:52;23.70;69.90
17495;DHT22;8864;51.970;4.614;2022-09-04T06:52:28;23.70;69.90
17495;DHT22;8864;51.970;4.614;2022-09-04T06:54:58;23.70;70.00
17495;DHT22;8864;51.970;4.614;2022-09-04T06:57:41;23.70;70.00
17495;DHT22;8864;51.970;4.614;2022-09-04T07:00:14;23.80;70.10
17495;DHT22;8864;51.970;4.614;2022-09-04T07:03:07;23.70;69.90
17495;DHT22;8864;51.970;4.614;2022-09-04T07:05:44;23.80;69.90
17495;DHT22;8864;51.970;4.614;2022-09-04T07:08:24;23.80;70.50
17495;DHT22;8864;51.970;4.614;2022-09-04T07:11:01;23.80;70.50
17495;DHT22;8864;51.970;4.614;2022-09-04T07:13:54;23.80;70.30
17495;DHT22;8864;51.970;4.614;2022-09-04T07:16:38;23.80;70.60
17495;DHT22;8864;51.970;4.614;2022-09-04T07:22:17;23.90;70.80
17495;DHT22;8864;51.970;4.614;2022-09-04T07:25:06;23.90;70.50
17495;DHT22;8864;51.970;4.614;2022-09-04T07:27:49;23.90;70.80
17495;DHT22;8864;51.970;4.614;2022-09-04T07:30:21;23.90;70.80
17495;DHT22;8864;51.970;4.614;2022-09-04T07:32:53;23.90;71.20
17495;DHT22;8864;51.970;4.614;2022-09-04T07:35:29;24.00;71.00
17495;DHT22;8864;51.970;4.614;2022-09-04T07:38:01;23.90;71.20
17495;DHT22;8864;51.970;4.614;2022-09-04T07:40:33;24.00;71.10
17495;DHT22;8864;51.970;4.614;2022-09-04T07:43:06;24.00;71.70
17495;DHT22;8864;51.970;4.614;2022-09-04T07:45:37;24.00;71.50
17495;DHT22;8864;51.970;4.614;2022-09-04T07:48:18;24.00;71.80
17495;DHT22;8864;51.970;4.614;2022-09-04T07:50:55;24.10;72.20
17495;DHT22;8864;51.970;4.614;2022-09-04T07:56:17;24.10;72.30
17495;DHT22;8864;51.970;4.614;2022-09-04T07:59:11;24.10;72.50
17495;DHT22;8864;51.970;4.614;2022-09-04T08:01:58;24.10;72.50
17495;DHT22;8864;51.970;4.614;2022-09-04T08:04:39;24.10;72.80
17495;DHT22;8864;51.970;4.614;2022-09-04T08:07:17;24.10;72.80
17495;DHT22;8864;51.970;4.614;2022-09-04T08:10:04;24.10;73.20
17495;DHT22;8864;51.970;4.614;2022-09-04T08:12:52;24.10;72.90
17495;DHT22;8864;51.970;4.614;2022-09-04T08:15:32;24.10;73.40
17495;DHT22;8864;51.970;4.614;2022-09-04T08:21:15;24.10;73.50
17495;DHT22;8864;51.970;4.614;2022-09-04T08:26:58;24.20;74.00
17495;DHT22;8864;51.970;4.614;2022-09-04T08:29:46;24.20;73.40
17495;DHT22;8864;51.970;4.614;2022-09-04T08:35:26;24.20;73.90
17495;DHT22;8864;51.970;4.614;2022-09-04T08:38:11;24.20;73.40
17495;DHT22;8864;51.970;4.614;2022-09-04T08:44:29;24.30;73.10
17495;DHT22;8864;51.970;4.614;2022-09-04T08:50:21;24.30;72.80
17495;DHT22;8864;51.970;4.614;2022-09-04T08:53:19;24.30;74.10
17495;DHT22;8864;51.970;4.614;2022-09-04T08:56:07;24.30;73.70
17495;DHT22;8864;51.970;4.614;2022-09-04T08:59:07;24.30;73.70
17495;DHT22;8864;51.970;4.614;2022-09-04T09:02:07;24.30;73.60
17495;DHT22;8864;51.970;4.614;2022-09-04T09:04:54;24.30;73.60
17495;DHT22;8864;51.970;4.614;2022-09-04T09:08:04;24.40;73.60
17495;DHT22;8864;51.970;4.614;2022-09-04T09:10:37;24.40;73.60
17495;DHT22;8864;51.970;4.614;2022-09-04T09:16:19;24.40;73.60
17495;DHT22;8864;51.970;4.614;2022-09-04T09:19:02;24.50;73.20
17495;DHT22;8864;51.970;4.614;2022-09-04T09:21:42;24.50;73.40
17495;DHT22;8864;51.970;4.614;2022-09-04T09:31:14;24.50;73.20
17495;DHT22;8864;51.970;4.614;2022-09-04T10:25:02;24.90;74.00
17495;DHT22;8864;51.970;4.614;2022-09-04T10:28:01;25.00;73.60
17495;DHT22;8864;51.970;4.614;2022-09-04T10:30:52;25.00;73.50
17495;DHT22;8864;51.970;4.614;2022-09-04T10:33:32;25.00;73.50
17495;DHT22;8864;51.970;4.614;2022-09-04T10:36:20;25.00;73.50
17495;DHT22;8864;51.970;4.614;2022-09-04T10:39:01;25.00;73.00
17495;DHT22;8864;51.970;4.614;2022-09-04T10:42:05;25.00;73.00
17495;DHT22;8864;51.970;4.614;2022-09-04T10:44:44;25.10;73.30
17495;DHT22;8864;51.970;4.614;2022-09-04T10:50:14;25.20;73.20
17495;DHT22;8864;51.970;4.614;2022-09-04T10:53:24;25.20;72.90
17495;DHT22;8864;51.970;4.614;2022-09-04T10:56:11;25.20;72.30
17495;DHT22;8864;51.970;4.614;2022-09-04T10:59:09;25.20;71.90
17495;DHT22;8864;51.970;4.614;2022-09-04T11:02:01;25.10;72.10
17495;DHT22;8864;51.970;4.614;2022-09-04T11:04:48;25.20;71.60
17495;DHT22;8864;51.970;4.614;2022-09-04T11:11:02;25.20;71.10
17495;DHT22;8864;51.970;4.614;2022-09-04T11:14:01;25.20;71.10
17495;DHT22;8864;51.970;4.614;2022-09-04T11:20:20;25.20;71.20
17495;DHT22;8864;51.970;4.614;2022-09-04T11:23:15;25.20;70.80
17495;DHT22;8864;51.970;4.614;2022-09-04T11:29:20;25.30;70.30
17495;DHT22;8864;51.970;4.614;2022-09-04T11:32:21;25.30;70.30
17495;DHT22;8864;51.970;4.614;2022-09-04T11:35:30;25.40;70.20
17495;DHT22;8864;51.970;4.614;2022-09-04T11:38:07;25.40;70.10
17495;DHT22;8864;51.970;4.614;2022-09-04T11:41:10;25.40;70.00
17495;DHT22;8864;51.970;4.614;2022-09-04T11:44:16;25.40;69.70
17495;DHT22;8864;51.970;4.614;2022-09-04T11:46:56;25.40;69.50
17495;DHT22;8864;51.970;4.614;2022-09-04T11:49:52;25.40;69.20
17495;DHT22;8864;51.970;4.614;2022-09-04T11:52:40;25.40;69.80
17495;DHT22;8864;51.970;4.614;2022-09-04T11:58:27;25.40;70.10
17495;DHT22;8864;51.970;4.614;2022-09-04T12:01:06;25.40;70.10
17495;DHT22;8864;51.970;4.614;2022-09-04T12:04:13;25.40;69.80
17495;DHT22;8864;51.970;4.614;2022-09-04T12:07:11;25.50;69.80
17495;DHT22;8864;51.970;4.614;2022-09-04T12:09:53;25.50;69.60
17495;DHT22;8864;51.970;4.614;2022-09-04T12:12:54;25.50;69.50
17495;DHT22;8864;51.970;4.614;2022-09-04T12:18:50;25.50;69.30
17495;DHT22;8864;51.970;4.614;2022-09-04T12:21:37;25.60;69.30
17495;DHT22;8864;51.970;4.614;2022-09-04T12:24:40;25.50;69.20
17495;DHT22;8864;51.970;4.614;2022-09-04T12:27:52;25.50;69.10
17495;DHT22;8864;51.970;4.614;2022-09-04T12:30:22;25.60;69.00
17495;DHT22;8864;51.970;4.614;2022-09-04T12:33:18;25.50;68.90
17495;DHT22;8864;51.970;4.614;2022-09-04T12:36:23;25.60;68.80
17495;DHT22;8864;51.970;4.614;2022-09-04T12:39:19;25.60;68.80
17495;DHT22;8864;51.970;4.614;2022-09-04T12:41:57;25.60;68.70
17495;DHT22;8864;51.970;4.614;2022-09-04T12:44:36;25.60;68.80
17495;DHT22;8864;51.970;4.614;2022-09-04T12:47:14;25.60;68.50
17495;DHT22;8864;51.970;4.614;2022-09-04T12:50:05;25.60;68.30
17495;DHT22;8864;51.970;4.614;2022-09-04T12:52:43;25.70;67.70
17495;DHT22;8864;51.970;4.614;2022-09-04T12:55:17;25.70;67.50
17495;DHT22;8864;51.970;4.614;2022-09-04T12:57:59;25.70;67.30
17495;DHT22;8864;51.970;4.614;2022-09-04T13:00:32;25.70;67.10
17495;DHT22;8864;51.970;4.614;2022-09-04T13:03:12;25.70;67.10
17495;DHT22;8864;51.970;4.614;2022-09-04T13:05:51;25.70;67.00
17495;DHT22;8864;51.970;4.614;2022-09-04T13:08:37;25.70;66.60
17495;DHT22;8864;51.970;4.614;2022-09-04T13:11:17;25.70;66.50
17495;DHT22;8864;51.970;4.614;2022-09-04T13:13:57;25.70;66.20
17495;DHT22;8864;51.970;4.614;2022-09-04T13:16:34;25.70;66.60
17495;DHT22;8864;51.970;4.614;2022-09-04T13:19:11;25.70;66.50
17495;DHT22;8864;51.970;4.614;2022-09-04T13:21:55;25.70;66.50
17495;DHT22;8864;51.970;4.614;2022-09-04T13:24:33;25.70;66.50
17495;DHT22;8864;51.970;4.614;2022-09-04T13:27:25;25.80;66.60
17495;DHT22;8864;51.970;4.614;2022-09-04T13:30:04;25.80;66.40
17495;DHT22;8864;51.970;4.614;2022-09-04T13:32:55;25.80;66.40
17495;DHT22;8864;51.970;4.614;2022-09-04T13:35:42;25.80;66.30
17495;DHT22;8864;51.970;4.614;2022-09-04T13:38:32;25.80;66.30
17495;DHT22;8864;51.970;4.614;2022-09-04T13:41:25;25.90;66.20
17495;DHT22;8864;51.970;4.614;2022-09-04T13:44:22;25.90;66.20
17495;DHT22;8864;51.970;4.614;2022-09-04T13:47:02;25.90;66.00
17495;DHT22;8864;51.970;4.614;2022-09-04T13:49:35;25.90;66.00
17495;DHT22;8864;51.970;4.614;2022-09-04T13:52:05;25.90;65.80
17495;DHT22;8864;51.970;4.614;2022-09-04T13:54:38;25.90;65.80
17495;DHT22;8864;51.970;4.614;2022-09-04T13:57:12;26.00;65.90
17495;DHT22;8864;51.970;4.614;2022-09-04T13:59:41;26.00;65.80
17495;DHT22;8864;51.970;4.614;2022-09-04T14:02:13;26.00;65.60
17495;DHT22;8864;51.970;4.614;2022-09-04T14:04:43;26.00;65.50
17495;DHT22;8864;51.970;4.614;2022-09-04T14:07:15;26.00;65.50
17495;DHT22;8864;51.970;4.614;2022-09-04T14:09:46;26.00;65.40
17495;DHT22;8864;51.970;4.614;2022-09-04T14:12:28;26.00;65.40
17495;DHT22;8864;51.970;4.614;2022-09-04T14:15:30;26.10;65.60
17495;DHT22;8864;51.970;4.614;2022-09-04T14:18:10;26.00;65.70
17495;DHT22;8864;51.970;4.614;2022-09-04T14:20:46;26.10;65.70
17495;DHT22;8864;51.970;4.614;2022-09-04T14:23:21;26.20;65.10
17495;DHT22;8864;51.970;4.614;2022-09-04T14:25:57;26.20;64.90
17495;DHT22;8864;51.970;4.614;2022-09-04T14:28:32;26.20;64.80
17495;DHT22;8864;51.970;4.614;2022-09-04T14:31:10;26.20;64.70
17495;DHT22;8864;51.970;4.614;2022-09-04T14:33:45;26.20;64.70
17495;DHT22;8864;51.970;4.614;2022-09-04T14:36:31;26.10;64.60
17495;DHT22;8864;51.970;4.614;2022-09-04T14:39:19;26.10;64.50
17495;DHT22;8864;51.970;4.614;2022-09-04T14:42:00;26.10;64.40
17495;DHT22;8864;51.970;4.614;2022-09-04T14:44:41;26.10;64.30
17495;DHT22;8864;51.970;4.614;2022-09-04T14:47:18;26.10;64.30
17495;DHT22;8864;51.970;4.614;2022-09-04T14:49:53;26.10;64.30
17495;DHT22;8864;51.970;4.614;2022-09-04T14:52:22;26.10;64.20
17495;DHT22;8864;51.970;4.614;2022-09-04T14:54:53;26.00;64.10
17495;DHT22;8864;51.970;4.614;2022-09-04T14:57:28;26.10;64.10
17495;DHT22;8864;51.970;4.614;2022-09-04T15:00:04;26.00;64.00
17495;DHT22;8864;51.970;4.614;2022-09-04T15:02:37;26.00;63.90
17495;DHT22;8864;51.970;4.614;2022-09-04T15:05:15;26.10;64.50
17495;DHT22;8864;51.970;4.614;2022-09-04T15:07:51;26.10;63.70
17495;DHT22;8864;51.970;4.614;2022-09-04T15:10:23;26.00;64.00
17495;DHT22;8864;51.970;4.614;2022-09-04T15:12:57;26.10;63.90
17495;DHT22;8864;51.970;4.614;2022-09-04T15:15:30;26.10;63.70
17495;DHT22;8864;51.970;4.614;2022-09-04T15:18:02;26.10;63.70
17495;DHT22;8864;51.970;4.614;2022-09-04T15:20:37;26.10;63.70
17495;DHT22;8864;51.970;4.614;2022-09-04T15:23:11;26.10;63.70
17495;DHT22;8864;51.970;4.614;2022-09-04T15:25:48;26.10;63.50
17495;DHT22;8864;51.970;4.614;2022-09-04T15:28:21;26.10;63.40
17495;DHT22;8864;51.970;4.614;2022-09-04T15:31:08;26.10;63.30
17495;DHT22;8864;51.970;4.614;2022-09-04T15:33:38;26.10;63.20
17495;DHT22;8864;51.970;4.614;2022-09-04T15:36:09;26.10;63.20
17495;DHT22;8864;51.970;4.614;2022-09-04T15:38:45;26.10;63.10
17495;DHT22;8864;51.970;4.614;2022-09-04T15:41:19;26.10;63.10
17495;DHT22;8864;51.970;4.614;2022-09-04T15:43:50;26.10;63.00
17495;DHT22;8864;51.970;4.614;2022-09-04T15:46:41;26.10;63.00
17495;DHT22;8864;51.970;4.614;2022-09-04T15:52:10;26.10;62.80
17495;DHT22;8864;51.970;4.614;2022-09-04T15:55:03;26.10;62.70
17495;DHT22;8864;51.970;4.614;2022-09-04T15:57:39;26.10;62.60
17495;DHT22;8864;51.970;4.614;2022-09-04T16:00:10;26.10;62.70
17495;DHT22;8864;51.970;4.614;2022-09-04T16:02:47;26.10;62.60
17495;DHT22;8864;51.970;4.614;2022-09-04T16:05:22;26.10;62.60
17495;DHT22;8864;51.970;4.614;2022-09-04T16:07:57;26.10;62.50
17495;DHT22;8864;51.970;4.614;2022-09-04T16:10:45;26.10;62.30
17495;DHT22;8864;51.970;4.614;2022-09-04T16:13:31;26.10;62.00
17495;DHT22;8864;51.970;4.614;2022-09-04T16:16:04;26.10;56.80
17495;DHT22;8864;51.970;4.614;2022-09-04T16:18:50;26.10;55.60
17495;DHT22;8864;51.970;4.614;2022-09-04T16:21:23;26.00;54.50
17495;DHT22;8864;51.970;4.614;2022-09-04T16:23:55;26.00;53.70
17495;DHT22;8864;51.970;4.614;2022-09-04T16:26:26;26.00;53.20
17495;DHT22;8864;51.970;4.614;2022-09-04T16:28:57;26.00;52.90
17495;DHT22;8864;51.970;4.614;2022-09-04T16:31:28;26.10;52.20
17495;DHT22;8864;51.970;4.614;2022-09-04T16:33:58;26.00;52.20
17495;DHT22;8864;51.970;4.614;2022-09-04T16:36:32;26.10;52.20
17495;DHT22;8864;51.970;4.614;2022-09-04T16:39:06;26.10;52.00
17495;DHT22;8864;51.970;4.614;2022-09-04T16:41:43;26.10;51.80
17495;DHT22;8864;51.970;4.614;2022-09-04T16:44:17;26.10;51.70
17495;DHT22;8864;51.970;4.614;2022-09-04T16:46:49;26.10;51.20
17495;DHT22;8864;51.970;4.614;2022-09-04T16:49:32;26.10;50.80
17495;DHT22;8864;51.970;4.614;2022-09-04T16:52:15;26.10;50.20
17495;DHT22;8864;51.970;4.614;2022-09-04T16:54:52;26.10;50.00
17495;DHT22;8864;51.970;4.614;2022-09-04T16:57:25;26.00;49.70
17495;DHT22;8864;51.970;4.614;2022-09-04T16:59:54;26.10;50.00
17495;DHT22;8864;51.970;4.614;2022-09-04T17:02:28;26.00;49.60
17495;DHT22;8864;51.970;4.614;2022-09-04T17:05:00;26.10;50.60
17495;DHT22;8864;51.970;4.614;2022-09-04T17:07:37;26.10;49.20
17495;DHT22;8864;51.970;4.614;2022-09-04T17:10:23;26.10;49.60
17495;DHT22;8864;51.970;4.614;2022-09-04T17:12:55;26.00;50.30
17495;DHT22;8864;51.970;4.614;2022-09-04T17:15:28;26.00;50.10
17495;DHT22;8864;51.970;4.614;2022-09-04T17:17:58;26.00;50.80
17495;DHT22;8864;51.970;4.614;2022-09-04T17:20:28;26.00;50.60
17495;DHT22;8864;51.970;4.614;2022-09-04T17:23:04;26.00;51.10
17495;DHT22;8864;51.970;4.614;2022-09-04T17:25:38;26.00;51.70
17495;DHT22;8864;51.970;4.614;2022-09-04T17:28:34;26.00;51.50
17495;DHT22;8864;51.970;4.614;2022-09-04T17:31:07;26.00;52.00
17495;DHT22;8864;51.970;4.614;2022-09-04T17:33:42;26.00;52.40
17495;DHT22;8864;51.970;4.614;2022-09-04T17:36:16;26.00;52.90
17495;DHT22;8864;51.970;4.614;2022-09-04T17:38:47;26.00;52.60
17495;DHT22;8864;51.970;4.614;2022-09-04T17:41:20;26.00;52.60
17495;DHT22;8864;51.970;4.614;2022-09-04T17:44:07;26.00;52.20
17495;DHT22;8864;51.970;4.614;2022-09-04T17:46:37;25.90;52.50
17495;DHT22;8864;51.970;4.614;2022-09-04T17:49:12;25.90;52.50
17495;DHT22;8864;51.970;4.614;2022-09-04T17:51:46;25.90;52.50
17495;DHT22;8864;51.970;4.614;2022-09-04T17:54:15;25.90;52.60
17495;DHT22;8864;51.970;4.614;2022-09-04T17:56:49;25.90;53.10
17495;DHT22;8864;51.970;4.614;2022-09-04T17:59:21;25.90;53.40
17495;DHT22;8864;51.970;4.614;2022-09-04T18:01:56;25.90;53.20
17495;DHT22;8864;51.970;4.614;2022-09-04T18:04:31;25.90;53.10
17495;DHT22;8864;51.970;4.614;2022-09-04T18:07:05;25.90;53.10
17495;DHT22;8864;51.970;4.614;2022-09-04T18:09:39;25.90;52.80
17495;DHT22;8864;51.970;4.614;2022-09-04T18:12:13;25.90;52.90
17495;DHT22;8864;51.970;4.614;2022-09-04T18:14:49;25.90;53.10
17495;DHT22;8864;51.970;4.614;2022-09-04T18:17:22;25.80;52.50
17495;DHT22;8864;51.970;4.614;2022-09-04T18:19:56;25.80;52.80
17495;DHT22;8864;51.970;4.614;2022-09-04T18:22:27;25.80;52.60
17495;DHT22;8864;51.970;4.614;2022-09-04T18:24:58;25.80;52.00
17495;DHT22;8864;51.970;4.614;2022-09-04T18:27:33;25.80;51.30
17495;DHT22;8864;51.970;4.614;2022-09-04T18:30:03;25.80;51.80
17495;DHT22;8864;51.970;4.614;2022-09-04T18:32:39;25.80;51.70
17495;DHT22;8864;51.970;4.614;2022-09-04T18:35:11;25.80;52.00
17495;DHT22;8864;51.970;4.614;2022-09-04T18:37:43;25.80;51.70
17495;DHT22;8864;51.970;4.614;2022-09-04T18:40:15;25.70;51.70
17495;DHT22;8864;51.970;4.614;2022-09-04T18:42:56;25.70;51.90
17495;DHT22;8864;51.970;4.614;2022-09-04T18:45:27;25.70;51.80
17495;DHT22;8864;51.970;4.614;2022-09-04T18:47:57;25.70;51.60
17495;DHT22;8864;51.970;4.614;2022-09-04T18:50:32;25.70;52.00
17495;DHT22;8864;51.970;4.614;2022-09-04T18:53:05;25.60;52.20
17495;DHT22;8864;51.970;4.614;2022-09-04T18:55:41;25.60;52.10
17495;DHT22;8864;51.970;4.614;2022-09-04T18:58:37;25.60;52.20
17495;DHT22;8864;51.970;4.614;2022-09-04T19:01:12;25.60;52.60
17495;DHT22;8864;51.970;4.614;2022-09-04T19:03:44;25.50;52.90
17495;DHT22;8864;51.970;4.614;2022-09-04T19:06:14;25.50;53.10
17495;DHT22;8864;51.970;4.614;2022-09-04T19:08:46;25.50;53.50
17495;DHT22;8864;51.970;4.614;2022-09-04T19:11:20;25.40;53.40
17495;DHT22;8864;51.970;4.614;2022-09-04T19:13:51;25.40;53.70
17495;DHT22;8864;51.970;4.614;2022-09-04T19:16:25;25.40;54.00